Time;durP1;ratioP1;P1;durP2;ratioP2;P2;SDS_P1;SDS_P2;PMS_P1;PMS_P2;Temp;Humidity;BMP_temperature;BMP_pressure;BME280_temperature;BME280_humidity;BME280_pressure;Samples;Min_cycle;Max_cycle;Signal;HPM_P1;HPM_P2
2021/08/06 00:01:26;;;;;;;12.88;6.35;;;;;;;20.01;68.68;100130.31;1748651;82;20964;-38
2021/08/06 00:03:55;;;;;;;14.23;6.33;;;;;;;20.00;68.57;100139.96;1747781;81;20940;-39
2021/08/06 00:06:27;;;;;;;14.13;6.20;;;;;;;20.01;68.39;100135.08;1748964;82;20971;-39
2021/08/06 00:08:55;;;;;;;25.12;7.42;;;;;;;20.04;68.29;100132.74;1748649;82;20928;-39
2021/08/06 00:11:28;;;;;;;57.53;10.35;;;;;;;20.06;68.26;100134.80;1748430;82;20945;-39
2021/08/06 00:13:56;;;;;;;53.92;8.43;;;;;;;20.09;68.09;100140.71;1719584;82;22088;-40
2021/08/06 00:16:24;;;;;;;65.00;9.23;;;;;;;20.13;67.97;100137.89;1720781;82;20916;-40
2021/08/06 00:18:51;;;;;;;54.30;9.28;;;;;;;20.15;67.75;100126.80;1718933;83;20908;-39
2021/08/06 00:21:18;;;;;;;40.28;8.15;;;;;;;20.15;68.05;100122.86;1719202;83;21123;-40
2021/08/06 00:23:45;;;;;;;56.10;9.43;;;;;;;20.13;68.64;100115.55;1718677;83;21038;-39
2021/08/06 00:26:12;;;;;;;46.48;9.10;;;;;;;20.07;68.45;100119.41;1718798;83;21016;-40
2021/08/06 00:28:40;;;;;;;40.17;8.65;;;;;;;20.01;69.10;100118.01;1719101;82;21569;-39
2021/08/06 00:31:07;;;;;;;42.90;8.45;;;;;;;19.95;69.21;100123.66;1731976;82;20987;-40
2021/08/06 00:33:34;;;;;;;28.10;7.85;;;;;;;19.90;69.15;100126.53;1732098;82;21889;-40
2021/08/06 00:36:03;;;;;;;43.52;8.90;;;;;;;19.86;69.51;100119.79;1718509;82;20928;-40
2021/08/06 00:38:30;;;;;;;36.38;8.60;;;;;;;19.81;70.08;100116.62;1718811;83;20992;-40
2021/08/06 00:40:57;;;;;;;42.95;7.45;;;;;;;19.73;70.63;100109.21;1719042;83;21518;-40
2021/08/06 00:43:25;;;;;;;27.02;7.15;;;;;;;19.68;70.92;100117.84;1720943;82;20936;-40
2021/08/06 00:45:52;;;;;;;15.75;6.55;;;;;;;19.63;71.22;100117.30;1719166;83;21136;-40
2021/08/06 00:48:20;;;;;;;21.90;7.83;;;;;;;19.60;71.21;100119.63;1715572;83;20924;-40
2021/08/06 00:50:50;;;;;;;21.48;7.40;;;;;;;19.57;70.96;100121.59;1718906;82;21469;-40
2021/08/06 00:53:16;;;;;;;22.80;8.35;;;;;;;19.56;70.95;100120.77;1718777;83;20994;-39
2021/08/06 00:55:44;;;;;;;22.22;8.00;;;;;;;19.56;70.69;100111.58;1719197;83;21533;-39
2021/08/06 00:58:13;;;;;;;21.15;7.15;;;;;;;19.59;71.17;100117.12;1718378;82;21245;-39
2021/08/06 01:00:39;;;;;;;17.65;7.72;;;;;;;19.58;71.66;100115.41;1726195;82;21020;-39
2021/08/06 01:03:23;;;;;;;15.23;7.12;;;;;;;19.54;71.86;100112.14;1720812;82;22200;-39
2021/08/06 01:06:10;;;;;;;13.98;6.97;;;;;;;19.54;71.78;100112.14;1748530;82;20971;-40
2021/08/06 01:08:48;;;;;;;19.27;8.05;;;;;;;19.53;71.32;100103.41;1689954;82;21591;-39
2021/08/06 01:11:16;;;;;;;12.28;7.17;;;;;;;19.56;71.20;100089.72;1748832;82;21113;-40
2021/08/06 01:13:50;;;;;;;11.33;7.08;;;;;;;19.57;70.99;100095.34;1748540;82;20941;-39
2021/08/06 01:16:18;;;;;;;12.75;7.03;;;;;;;19.59;70.84;100096.12;1748532;81;21554;-40
2021/08/06 01:19:14;;;;;;;17.05;6.60;;;;;;;19.60;70.83;100094.70;1733922;82;20998;-39
2021/08/06 01:21:45;;;;;;;20.52;7.25;;;;;;;19.60;70.80;100092.55;1719021;83;21458;-40
2021/08/06 01:24:15;;;;;;;10.58;6.60;;;;;;;19.59;71.08;100094.32;1718787;82;21100;-39
2021/08/06 01:26:45;;;;;;;11.00;6.55;;;;;;;19.56;71.23;100093.66;1702661;82;21014;-40
2021/08/06 01:29:14;;;;;;;15.45;7.67;;;;;;;19.54;71.23;100097.70;1694109;83;21019;-39
2021/08/06 01:31:42;;;;;;;36.03;8.25;;;;;;;19.53;71.37;100094.22;1715712;82;21557;-39
2021/08/06 01:34:13;;;;;;;27.13;9.00;;;;;;;19.55;71.39;100095.91;1719728;82;21015;-39
2021/08/06 01:36:40;;;;;;;36.77;9.43;;;;;;;19.58;71.46;100095.72;1712184;82;21117;-40
2021/08/06 01:39:07;;;;;;;43.50;9.70;;;;;;;19.60;71.38;100100.43;1705164;84;20949;-39
2021/08/06 01:41:41;;;;;;;42.78;10.23;;;;;;;19.61;71.32;100100.31;1704737;84;20980;-39
2021/08/06 01:44:31;;;;;;;55.67;11.88;;;;;;;19.61;71.39;100091.62;1704771;83;20991;-40
2021/08/06 01:47:09;;;;;;;58.55;11.57;;;;;;;19.63;71.33;100092.36;1705568;83;20941;-40
2021/08/06 01:49:42;;;;;;;45.78;10.50;;;;;;;19.62;71.20;100089.36;1678283;83;21211;-38
2021/08/06 01:52:13;;;;;;;78.05;11.95;;;;;;;19.62;71.37;100092.81;1729330;82;21525;-39
2021/08/06 01:54:40;;;;;;;68.70;12.37;;;;;;;19.67;71.34;100086.80;1708752;82;21577;-39
2021/08/06 01:57:08;;;;;;;68.37;11.78;;;;;;;19.70;71.24;100077.91;1734410;82;20949;-39
2021/08/06 01:59:35;;;;;;;76.97;12.43;;;;;;;19.73;71.08;100086.07;1713962;82;20968;-39
2021/08/06 02:02:03;;;;;;;97.50;14.83;;;;;;;19.75;71.20;100077.63;1713838;82;22003;-39
2021/08/06 02:04:30;;;;;;;80.92;13.03;;;;;;;19.79;71.13;100067.30;1734652;81;20956;-39
2021/08/06 02:06:58;;;;;;;100.80;13.55;;;;;;;19.82;71.20;100063.16;1715984;82;21029;-39
2021/08/06 02:09:26;;;;;;;73.70;11.33;;;;;;;19.86;71.28;100063.81;1718060;82;21553;-39
2021/08/06 02:11:53;;;;;;;84.00;12.60;;;;;;;19.93;71.41;100060.70;1705432;84;21511;-39
2021/08/06 02:14:23;;;;;;;104.15;14.68;;;;;;;19.99;71.67;100059.48;1717667;82;21177;-39
2021/08/06 02:16:52;;;;;;;74.50;13.75;;;;;;;20.03;71.73;100055.70;1705395;82;21557;-39
2021/08/06 02:19:22;;;;;;;95.95;13.50;;;;;;;20.03;71.74;100051.77;1705506;84;20961;-39
2021/08/06 02:21:55;;;;;;;62.27;11.00;;;;;;;20.03;71.90;100032.55;1705141;84;20980;-39
2021/08/06 02:24:23;;;;;;;72.67;11.43;;;;;;;19.99;72.68;100021.88;1717697;82;20964;-40
2021/08/06 02:26:50;;;;;;;45.80;9.98;;;;;;;19.90;72.75;100016.72;1705346;84;21786;-39
2021/08/06 02:29:19;;;;;;;50.40;11.25;;;;;;;19.79;72.96;100011.67;1689186;83;20956;-39
2021/08/06 02:31:46;;;;;;;24.23;9.00;;;;;;;19.67;73.40;100011.98;1705665;84;22207;-39
2021/08/06 02:34:15;;;;;;;23.40;9.20;;;;;;;19.58;73.72;100019.14;1718524;82;20944;-39
2021/08/06 02:36:43;;;;;;;28.30;10.28;;;;;;;19.50;74.02;100022.73;1710587;82;20979;-39
2021/08/06 02:39:19;;;;;;;26.48;9.15;;;;;;;19.45;74.34;100023.46;1718790;83;21297;-39
2021/08/06 02:41:48;;;;;;;27.82;9.10;;;;;;;19.35;74.63;100024.05;1718822;83;21525;-39
2021/08/06 02:44:15;;;;;;;23.60;9.70;;;;;;;19.28;75.09;100017.50;1718978;82;20971;-39
2021/08/06 02:46:42;;;;;;;20.37;9.65;;;;;;;19.25;75.37;100024.26;1718840;83;20975;-39
2021/08/06 02:49:09;;;;;;;17.85;8.10;;;;;;;19.22;75.91;100032.32;1718877;83;21046;-39
2021/08/06 02:51:35;;;;;;;54.18;16.93;;;;;;;19.20;76.79;100043.38;1693097;83;21153;-39
2021/08/06 02:54:01;;;;;;;69.20;15.93;;;;;;;19.16;77.96;100040.54;1718882;83;20983;-39
2021/08/06 02:56:29;;;;;;;89.92;14.98;;;;;;;19.14;79.09;100043.28;1718888;82;21019;-39
2021/08/06 02:58:58;;;;;;;58.38;11.60;;;;;;;19.17;79.86;100045.70;1718778;83;20950;-39
2021/08/06 03:01:25;;;;;;;107.12;14.70;;;;;;;19.21;80.35;100047.20;1716189;83;21043;-38
2021/08/06 03:03:52;;;;;;;70.42;12.37;;;;;;;19.24;80.52;100047.02;1692144;83;21120;-39
2021/08/06 03:06:20;;;;;;;63.15;12.35;;;;;;;19.27;80.67;100043.82;1718791;83;20935;-39
2021/08/06 03:08:47;;;;;;;102.22;12.75;;;;;;;19.30;80.82;100041.86;1732001;82;20956;-40
2021/08/06 03:11:16;;;;;;;79.90;11.38;;;;;;;19.35;80.93;100035.03;1745662;82;20937;-39
2021/08/06 03:13:44;;;;;;;124.62;14.33;;;;;;;19.42;80.95;100037.64;1748659;82;21007;-39
2021/08/06 03:16:11;;;;;;;111.52;16.30;;;;;;;19.50;80.97;100039.78;1749045;82;21165;-39
2021/08/06 03:18:40;;;;;;;129.65;15.58;;;;;;;19.58;80.90;100037.97;1748636;82;21434;-39
2021/08/06 03:21:07;;;;;;;58.55;10.32;;;;;;;19.66;80.73;100021.28;1748813;82;21604;-39
2021/08/06 03:23:34;;;;;;;53.55;10.08;;;;;;;19.73;80.53;100022.57;1748707;82;21507;-39
2021/08/06 03:26:00;;;;;;;43.63;10.58;;;;;;;19.82;80.32;100024.59;1733044;80;20987;-39
2021/08/06 03:28:27;;;;;;;59.95;12.20;;;;;;;19.90;80.26;100039.04;1731884;82;21143;-39
2021/08/06 03:30:54;;;;;;;67.47;13.40;;;;;;;19.94;80.30;100042.69;1727349;82;21134;-39
2021/08/06 03:33:21;;;;;;;61.15;10.85;;;;;;;20.00;80.36;100037.52;1739762;82;20948;-39
2021/08/06 03:35:48;;;;;;;50.38;11.45;;;;;;;20.10;80.80;100046.52;1731078;82;21499;-39
2021/08/06 03:38:20;;;;;;;52.38;10.90;;;;;;;20.21;81.05;100050.20;1736116;81;21514;-38
2021/08/06 03:40:48;;;;;;;73.25;14.18;;;;;;;20.29;80.73;100060.22;1734502;82;21923;-38
2021/08/06 03:43:15;;;;;;;183.12;18.62;;;;;;;20.39;80.55;100073.12;1734710;82;21561;-39
2021/08/06 03:45:42;;;;;;;217.85;24.35;;;;;;;20.52;80.10;100081.03;1734655;82;21489;-40
2021/08/06 03:48:09;;;;;;;98.05;15.63;;;;;;;20.68;79.29;100076.45;1734638;82;21530;-39
2021/08/06 03:50:36;;;;;;;70.57;13.05;;;;;;;20.85;77.77;100069.70;1713172;82;21546;-39
2021/08/06 03:53:03;;;;;;;31.87;10.40;;;;;;;21.01;76.81;100065.55;1716623;82;21046;-39
2021/08/06 03:55:30;;;;;;;29.52;10.50;;;;;;;21.19;75.37;100062.12;1728035;82;21033;-39
2021/08/06 03:57:58;;;;;;;32.10;10.68;;;;;;;21.32;74.98;100051.58;1734647;82;21539;-39
2021/08/06 04:00:28;;;;;;;48.92;10.78;;;;;;;21.44;74.54;100046.78;1734981;82;20968;-39
2021/08/06 04:02:55;;;;;;;30.15;11.22;;;;;;;21.55;74.35;100048.66;1734687;82;20944;-39
2021/08/06 04:05:23;;;;;;;30.15;10.75;;;;;;;21.65;73.60;100044.43;1734845;82;21133;-39
2021/08/06 04:07:49;;;;;;;38.40;11.33;;;;;;;21.77;73.37;100040.57;1734734;82;21012;-39
2021/08/06 04:10:21;;;;;;;45.28;10.95;;;;;;;21.88;73.12;100035.84;1718859;82;21550;-39
2021/08/06 04:12:48;;;;;;;41.75;11.80;;;;;;;21.99;72.62;100031.11;1725603;82;21019;-38
2021/08/06 04:15:18;;;;;;;41.37;11.75;;;;;;;22.10;72.13;100020.60;1734861;81;21036;-39
2021/08/06 04:17:44;;;;;;;32.23;11.45;;;;;;;22.22;72.07;100022.31;1734693;81;21132;-39
2021/08/06 04:20:11;;;;;;;26.90;12.30;;;;;;;22.32;71.93;100018.52;1734719;82;20961;-38
2021/08/06 04:22:39;;;;;;;27.95;12.30;;;;;;;22.44;71.32;100008.84;1734677;82;20960;-39
2021/08/06 04:25:09;;;;;;;24.35;11.60;;;;;;;22.58;71.26;99999.09;1734639;82;20929;-39
2021/08/06 04:27:35;;;;;;;39.35;10.82;;;;;;;22.74;70.52;99981.60;1720153;82;21265;-39
2021/08/06 04:30:05;;;;;;;68.40;13.50;;;;;;;22.92;70.39;99978.01;1705286;84;21082;-39
2021/08/06 04:32:31;;;;;;;91.75;14.05;;;;;;;23.13;71.28;99975.50;1705130;83;20984;-39
2021/08/06 04:34:58;;;;;;;116.90;16.85;;;;;;;23.31;71.39;99974.54;1718011;82;20945;-39
2021/08/06 04:37:24;;;;;;;115.12;15.70;;;;;;;23.50;70.34;99973.07;1705083;83;21020;-39
2021/08/06 04:39:51;;;;;;;96.95;17.70;;;;;;;23.64;69.04;99962.20;1684963;84;20991;-39
2021/08/06 04:42:17;;;;;;;77.97;13.88;;;;;;;23.88;69.05;99961.66;1684733;84;21834;-39
2021/08/06 04:44:44;;;;;;;62.78;11.73;;;;;;;24.11;68.17;99969.02;1718806;82;21581;-39
2021/08/06 04:47:11;;;;;;;47.48;12.10;;;;;;;24.33;66.50;99966.72;1734473;82;20949;-39
2021/08/06 04:49:37;;;;;;;34.20;10.75;;;;;;;24.47;66.50;99974.80;1734636;82;21008;-39
2021/08/06 04:52:06;;;;;;;27.13;9.98;;;;;;;24.63;65.99;99967.75;1734697;82;20909;-39
2021/08/06 04:54:32;;;;;;;25.23;9.73;;;;;;;24.84;66.02;99966.88;1734550;82;21147;-39
2021/08/06 04:56:59;;;;;;;23.92;9.83;;;;;;;25.06;65.98;99958.39;1734489;82;21019;-40
2021/08/06 04:59:26;;;;;;;16.62;8.53;;;;;;;25.26;65.15;99959.27;1734679;82;20882;-39
2021/08/06 05:01:53;;;;;;;20.35;9.65;;;;;;;25.48;64.62;99960.04;1723078;82;20988;-39
2021/08/06 05:04:19;;;;;;;13.78;8.88;;;;;;;25.70;64.67;99960.77;1716587;82;20952;-40
2021/08/06 05:06:46;;;;;;;13.20;8.50;;;;;;;25.95;64.13;99956.73;1705211;84;21761;-39
2021/08/06 05:09:14;;;;;;;19.12;8.88;;;;;;;26.16;63.64;99959.71;1705287;84;20972;-39
2021/08/06 05:11:41;;;;;;;13.25;8.50;;;;;;;26.34;63.13;99950.05;1705219;83;21023;-40
2021/08/06 05:14:07;;;;;;;20.72;9.15;;;;;;;26.60;63.07;99955.23;1705135;84;20901;-39
2021/08/06 05:16:35;;;;;;;17.20;8.45;;;;;;;26.87;61.68;99951.78;1684204;84;21589;-39
2021/08/06 05:19:04;;;;;;;16.65;8.38;;;;;;;27.16;60.84;99959.27;1722175;82;21613;-40
2021/08/06 05:21:30;;;;;;;23.95;8.43;;;;;;;27.26;59.59;99956.05;1734454;82;21517;-40
2021/08/06 05:23:57;;;;;;;18.37;8.08;;;;;;;27.38;59.90;99955.34;1734584;82;21032;-40
2021/08/06 05:26:23;;;;;;;15.53;8.55;;;;;;;27.57;59.57;99951.77;1734586;82;21019;-40
2021/08/06 05:28:51;;;;;;;20.05;7.80;;;;;;;27.79;59.29;99949.13;1720131;81;21320;-40
2021/08/06 05:31:19;;;;;;;17.05;7.28;;;;;;;27.99;59.23;99946.78;1705040;83;21227;-40
2021/08/06 05:33:46;;;;;;;15.03;7.80;;;;;;;28.14;58.73;99941.25;1715293;82;20996;-39
2021/08/06 05:36:13;;;;;;;16.62;7.85;;;;;;;28.24;58.76;99945.19;1720986;81;20960;-39
2021/08/06 05:38:40;;;;;;;14.23;7.37;;;;;;;28.35;58.38;99938.77;1745166;81;21007;-39
2021/08/06 05:41:07;;;;;;;9.58;6.62;;;;;;;28.44;58.65;99938.33;1748648;81;20921;-38
2021/08/06 05:43:33;;;;;;;13.95;7.30;;;;;;;28.46;58.28;99937.16;1746443;82;21150;-39
2021/08/06 05:46:00;;;;;;;14.60;7.30;;;;;;;28.47;58.51;99938.00;1738198;82;21043;-39
2021/08/06 05:48:28;;;;;;;18.12;7.00;;;;;;;28.51;58.51;99927.38;1748426;82;21495;-39
2021/08/06 05:50:55;;;;;;;9.63;6.42;;;;;;;28.53;58.69;99927.53;1720747;82;20980;-39
2021/08/06 05:53:23;;;;;;;13.93;6.92;;;;;;;28.57;58.76;99926.73;1749038;82;20976;-40
2021/08/06 05:55:59;;;;;;;12.53;7.20;;;;;;;28.51;58.97;99923.38;1748716;82;21168;-40
2021/08/06 05:58:27;;;;;;;16.37;6.80;;;;;;;28.50;58.64;99922.53;1748616;82;21040;-39
2021/08/06 06:00:54;;;;;;;13.05;6.03;;;;;;;28.42;58.77;99921.66;1748852;82;20983;-40
2021/08/06 06:03:23;;;;;;;7.28;6.08;;;;;;;28.33;59.32;99927.45;1746600;82;20940;-40
2021/08/06 06:05:57;;;;;;;19.87;6.75;;;;;;;28.33;59.50;99918.95;1681045;82;21087;-40
2021/08/06 06:08:26;;;;;;;13.28;6.25;;;;;;;28.29;59.61;99916.75;1748645;82;21021;-40
2021/08/06 06:10:53;;;;;;;11.57;6.03;;;;;;;28.29;59.92;99918.94;1748634;82;20951;-41
2021/08/06 06:13:20;;;;;;;16.40;6.62;;;;;;;28.27;59.89;99920.08;1748989;82;20956;-41
2021/08/06 06:15:49;;;;;;;12.05;6.17;;;;;;;28.32;60.28;99925.27;1748907;80;21094;-39
2021/08/06 06:18:16;;;;;;;14.95;6.80;;;;;;;28.36;59.14;99922.63;1720844;82;20975;-39
2021/08/06 06:20:43;;;;;;;11.12;7.45;;;;;;;28.43;59.21;99918.03;1747846;82;21107;-39
2021/08/06 06:23:13;;;;;;;17.30;7.15;;;;;;;28.60;59.39;99915.77;1733826;82;20992;-40
2021/08/06 06:25:40;;;;;;;19.45;7.42;;;;;;;28.66;58.83;99919.11;1735223;82;20932;-39
2021/08/06 06:28:06;;;;;;;15.60;7.22;;;;;;;28.77;58.83;99918.00;1720866;82;21020;-39
2021/08/06 06:30:39;;;;;;;18.50;7.78;;;;;;;28.88;58.26;99925.41;1723046;82;22260;-39
2021/08/06 06:33:06;;;;;;;16.37;6.90;;;;;;;29.01;57.93;99928.94;1748656;82;21126;-40
2021/08/06 06:35:33;;;;;;;18.65;6.87;;;;;;;29.06;58.41;99931.95;1748715;81;20924;-40
2021/08/06 06:37:59;;;;;;;21.15;7.28;;;;;;;29.10;57.69;99936.80;1748758;81;21010;-40
2021/08/06 06:40:27;;;;;;;13.90;7.50;;;;;;;29.11;57.23;99941.13;1720750;82;20908;-40
2021/08/06 06:42:55;;;;;;;28.70;8.38;;;;;;;28.98;57.60;99943.92;1738709;82;21034;-40
2021/08/06 06:45:23;;;;;;;22.17;8.38;;;;;;;28.80;58.01;99946.17;1739120;82;21118;-40
2021/08/06 06:47:51;;;;;;;25.02;9.08;;;;;;;28.68;58.55;99942.45;1745971;80;21003;-40
2021/08/06 06:50:24;;;;;;;32.35;10.20;;;;;;;28.61;58.46;99942.72;1748782;82;21497;-39
2021/08/06 06:52:51;;;;;;;34.95;11.10;;;;;;;28.60;58.54;99944.23;1748962;82;21502;-40
2021/08/06 06:55:18;;;;;;;35.70;10.25;;;;;;;28.58;58.34;99940.89;1748863;82;21010;-40
2021/08/06 06:57:50;;;;;;;32.17;10.20;;;;;;;28.63;58.54;99936.73;1748735;82;21149;-40
2021/08/06 07:00:20;;;;;;;37.40;10.48;;;;;;;28.64;58.54;99938.41;1748121;82;21007;-40
2021/08/06 07:02:47;;;;;;;29.60;9.83;;;;;;;28.57;58.44;99934.72;1727199;82;21501;-40
2021/08/06 07:05:15;;;;;;;28.83;8.90;;;;;;;28.51;58.54;99947.34;1718785;82;20983;-39
2021/08/06 07:07:42;;;;;;;15.08;7.00;;;;;;;28.51;59.36;99947.34;1718867;82;20987;-39
2021/08/06 07:10:10;;;;;;;26.02;7.80;;;;;;;28.57;59.17;99948.54;1718949;82;21153;-39
2021/08/06 07:12:40;;;;;;;26.00;7.58;;;;;;;28.70;59.53;99944.11;1747031;82;21027;-40
2021/08/06 07:15:08;;;;;;;17.42;5.87;;;;;;;28.85;59.86;99945.70;1748711;82;21632;-40
2021/08/06 07:17:38;;;;;;;18.77;6.47;;;;;;;28.96;59.20;99939.59;1748809;81;20988;-40
2021/08/06 07:20:08;;;;;;;16.35;6.33;;;;;;;28.97;57.90;99941.73;1748616;82;20970;-39
2021/08/06 07:22:34;;;;;;;15.30;6.42;;;;;;;28.89;57.77;99946.53;1721236;82;21001;-40
2021/08/06 07:25:05;;;;;;;24.63;6.58;;;;;;;28.89;58.50;99943.05;1748583;82;21097;-39
2021/08/06 07:27:31;;;;;;;15.60;6.40;;;;;;;28.90;58.07;99946.87;1748241;82;21110;-39
2021/08/06 07:29:58;;;;;;;11.45;6.42;;;;;;;29.03;58.09;99937.60;1748633;80;20960;-40
2021/08/06 07:32:25;;;;;;;13.25;6.62;;;;;;;29.15;58.01;99940.29;1748763;82;20975;-40
2021/08/06 07:34:52;;;;;;;13.98;6.70;;;;;;;29.30;56.29;99944.48;1748649;82;22341;-40
2021/08/06 07:37:21;;;;;;;10.98;6.53;;;;;;;29.46;55.93;99934.41;1748729;82;20996;-40
2021/08/06 07:39:49;;;;;;;18.17;6.75;;;;;;;29.65;56.02;99935.07;1714968;82;20960;-40
2021/08/06 07:42:17;;;;;;;11.93;7.00;;;;;;;29.75;56.04;99941.58;1727681;82;20984;-40
2021/08/06 07:44:44;;;;;;;12.78;6.72;;;;;;;29.91;54.18;99939.41;1686693;83;21027;-40
2021/08/06 07:47:11;;;;;;;14.87;6.65;;;;;;;30.03;54.08;99944.77;1724887;82;21057;-40
2021/08/06 07:49:40;;;;;;;16.15;7.22;;;;;;;30.15;54.17;99945.75;1727812;82;21012;-40
2021/08/06 07:52:10;;;;;;;10.68;5.83;;;;;;;30.18;53.53;99949.41;1715467;82;21487;-40
2021/08/06 07:54:38;;;;;;;14.58;6.35;;;;;;;30.32;53.17;99948.73;1695620;82;21011;-40
2021/08/06 07:57:05;;;;;;;15.50;6.40;;;;;;;30.29;52.93;99946.89;1744496;82;20885;-40
2021/08/06 07:59:33;;;;;;;17.23;6.67;;;;;;;30.18;53.40;99948.08;1744968;82;21045;-40
2021/08/06 08:02:00;;;;;;;11.03;6.25;;;;;;;30.26;53.87;99941.41;1745062;82;21012;-40
2021/08/06 08:04:27;;;;;;;9.75;6.45;;;;;;;30.49;53.74;99946.03;1744322;82;20988;-40
2021/08/06 08:06:56;;;;;;;13.68;6.60;;;;;;;30.83;52.10;99942.25;1742172;82;20936;-41
2021/08/06 08:09:25;;;;;;;16.10;6.42;;;;;;;31.06;51.41;99933.47;1715409;82;21569;-40
2021/08/06 08:11:52;;;;;;;7.92;5.65;;;;;;;31.32;50.08;99932.34;1722451;82;21125;-40
2021/08/06 08:14:20;;;;;;;17.25;5.53;;;;;;;31.61;49.40;99929.45;1728432;82;21015;-41
2021/08/06 08:16:49;;;;;;;11.55;5.53;;;;;;;31.87;49.26;99931.79;1744759;82;21003;-40
2021/08/06 08:19:18;;;;;;;13.32;4.60;;;;;;;32.00;46.00;99927.16;1725797;82;20992;-41
2021/08/06 08:21:46;;;;;;;9.48;4.60;;;;;;;32.10;45.75;99924.22;1686562;83;20952;-41
2021/08/06 08:24:14;;;;;;;12.65;5.05;;;;;;;32.17;45.41;99927.81;1686794;83;20995;-41
2021/08/06 08:26:41;;;;;;;15.35;4.83;;;;;;;32.25;46.46;99917.54;1715128;83;21042;-40
2021/08/06 08:29:08;;;;;;;11.43;5.22;;;;;;;32.44;45.34;99915.33;1715115;83;20976;-41
2021/08/06 08:31:36;;;;;;;6.90;4.62;;;;;;;32.52;44.34;99916.59;1722833;82;21051;-41
2021/08/06 08:34:03;;;;;;;9.38;4.78;;;;;;;32.62;43.30;99907.75;1739725;82;20976;-40
2021/08/06 08:36:30;;;;;;;11.20;4.72;;;;;;;32.85;44.29;99903.30;1729461;82;21124;-41
2021/08/06 08:39:04;;;;;;;6.37;4.10;;;;;;;32.96;43.06;99904.17;1734234;82;20983;-41
2021/08/06 08:41:34;;;;;;;10.40;4.65;;;;;;;32.88;41.91;99900.27;1710008;83;20967;-40
2021/08/06 08:44:01;;;;;;;7.00;4.10;;;;;;;32.89;41.72;99896.05;1720714;82;20980;-41
2021/08/06 08:46:32;;;;;;;7.30;4.17;;;;;;;32.99;40.96;99887.70;1735480;81;20991;-40
2021/08/06 08:49:01;;;;;;;11.00;4.30;;;;;;;33.04;40.96;99885.28;1726060;82;21192;-40
2021/08/06 08:51:30;;;;;;;7.65;4.03;;;;;;;33.08;40.92;99876.36;1729431;82;20975;-40
2021/08/06 08:54:05;;;;;;;5.60;4.05;;;;;;;33.15;41.33;99869.21;1718869;83;21785;-41
2021/08/06 08:56:30;;;;;;;9.23;4.37;;;;;;;33.34;40.93;99864.23;1721066;82;21541;-41
2021/08/06 08:58:58;;;;;;;10.90;4.20;;;;;;;33.56;41.03;99857.02;1748617;82;20904;-41
2021/08/06 09:01:26;;;;;;;4.87;3.87;;;;;;;33.73;38.92;99848.69;1720362;82;21974;-41
2021/08/06 09:03:54;;;;;;;8.00;3.72;;;;;;;33.82;35.72;99836.77;1745710;82;21486;-40
2021/08/06 09:06:43;;;;;;;12.85;3.92;;;;;;;33.85;35.86;99832.87;1727026;82;21541;-41
2021/08/06 09:09:16;;;;;;;9.13;3.90;;;;;;;33.90;37.20;99827.74;1745347;82;21016;-40
2021/08/06 09:11:50;;;;;;;9.98;3.72;;;;;;;33.94;36.00;99815.58;1721879;82;27473;-40
2021/08/06 09:14:35;;;;;;;11.97;3.62;;;;;;;33.93;35.17;99810.75;1746604;82;22527;-39
2021/08/06 09:17:14;;;;;;;7.95;3.52;;;;;;;33.95;35.89;99805.17;1720807;82;22209;-39
2021/08/06 09:19:44;;;;;;;7.50;3.75;;;;;;;34.00;36.56;99802.77;1748573;82;20981;-40
2021/08/06 09:22:24;;;;;;;10.80;3.47;;;;;;;33.91;34.87;99802.07;1747792;82;21011;-40
2021/08/06 09:25:14;;;;;;;3.58;3.25;;;;;;;34.01;34.99;99795.03;1759396;80;20914;-40
2021/08/06 09:27:47;;;;;;;5.08;3.27;;;;;;;34.11;35.05;99791.98;1736153;81;21287;-40
2021/08/06 09:30:37;;;;;;;4.65;3.25;;;;;;;34.23;34.75;99773.42;1734200;82;21013;-40
2021/08/06 09:33:04;;;;;;;7.90;2.98;;;;;;;34.38;34.46;99771.42;1736404;82;20986;-39
2021/08/06 09:35:33;;;;;;;5.85;2.83;;;;;;;34.34;34.85;99748.69;1738285;82;21028;-41
2021/08/06 09:38:01;;;;;;;3.42;3.00;;;;;;;34.27;35.01;99750.54;1718760;83;20909;-40
2021/08/06 09:40:31;;;;;;;6.10;3.50;;;;;;;34.30;33.90;99746.61;1719500;82;21578;-41
2021/08/06 09:43:04;;;;;;;7.60;2.98;;;;;;;34.37;34.91;99752.31;1713597;82;20937;-41
2021/08/06 09:45:39;;;;;;;6.83;3.30;;;;;;;34.48;33.84;99747.37;1734616;81;21491;-41
2021/08/06 09:48:08;;;;;;;8.95;3.02;;;;;;;34.56;33.29;99747.23;1733771;81;20976;-40
2021/08/06 09:50:44;;;;;;;6.67;3.05;;;;;;;34.76;31.85;99753.97;1726869;81;20987;-40
2021/08/06 09:54:40;;;;;;;4.12;3.00;;;;;;;34.87;32.53;99755.22;1799413;79;22709;-40
2021/08/06 09:57:11;;;;;;;5.08;2.77;;;;;;;34.87;32.27;99759.25;1696217;82;21572;-40
2021/08/06 09:59:38;;;;;;;8.10;2.98;;;;;;;34.82;31.66;99756.36;1708404;83;21081;-40
2021/08/06 10:02:19;;;;;;;3.20;2.75;;;;;;;34.88;32.84;99755.53;1739480;80;21026;-40
2021/08/06 10:05:01;;;;;;;45.85;3.52;;;;;;;35.01;31.61;99750.70;1726667;82;20991;-40
2021/08/06 10:07:29;;;;;;;3.52;2.98;;;;;;;35.12;30.79;99747.11;1719692;82;20952;-40
2021/08/06 10:09:56;;;;;;;3.15;2.65;;;;;;;35.29;31.54;99742.94;1726674;83;21560;-40
2021/08/06 10:12:23;;;;;;;6.40;3.40;;;;;;;35.34;31.70;99735.59;1739882;80;21189;-40
2021/08/06 10:14:52;;;;;;;13.93;3.12;;;;;;;35.41;31.91;99733.71;1756871;81;20948;-40
2021/08/06 10:17:21;;;;;;;15.98;3.30;;;;;;;35.38;30.75;99726.06;1757002;81;20991;-41
2021/08/06 10:19:48;;;;;;;6.70;3.37;;;;;;;35.33;30.69;99718.63;1759564;80;21086;-40
2021/08/06 10:22:15;;;;;;;5.17;3.05;;;;;;;35.31;30.51;99703.22;1748063;80;21501;-39
2021/08/06 10:24:45;;;;;;;4.12;3.22;;;;;;;35.38;31.15;99701.87;1763570;80;21129;-40
2021/08/06 10:27:13;;;;;;;6.08;3.90;;;;;;;35.44;30.96;99699.67;1742167;82;21524;-40
2021/08/06 10:30:07;;;;;;;11.05;3.52;;;;;;;35.52;31.18;99691.42;1731476;81;20956;-40
2021/08/06 10:32:36;;;;;;;7.75;3.42;;;;;;;35.47;31.05;99695.21;1726837;82;20924;-41
2021/08/06 10:35:07;;;;;;;4.60;3.10;;;;;;;35.56;30.07;99681.05;1726745;82;21055;-40
2021/08/06 10:38:02;;;;;;;7.87;3.58;;;;;;;35.55;30.23;99692.84;1726900;83;21113;-41
2021/08/06 10:40:38;;;;;;;8.85;3.12;;;;;;;35.51;30.30;99691.62;1722469;82;20975;-41
2021/08/06 10:43:20;;;;;;;7.87;3.00;;;;;;;35.50;28.91;99675.14;1695983;84;21032;-41
2021/08/06 10:45:52;;;;;;;7.40;3.08;;;;;;;35.35;29.57;99679.43;1696032;84;21075;-41
2021/08/06 10:48:39;;;;;;;4.37;2.80;;;;;;;35.29;30.08;99682.97;1696065;84;21024;-41
2021/08/06 10:51:23;;;;;;;7.12;3.10;;;;;;;35.32;29.99;99675.29;1677999;84;22311;-41
2021/08/06 10:54:04;;;;;;;4.80;2.72;;;;;;;35.39;30.41;99664.52;1693381;84;21027;-41
2021/08/06 10:56:34;;;;;;;14.75;3.30;;;;;;;35.54;29.63;99658.91;1645523;85;21000;-41
2021/08/06 10:59:10;;;;;;;8.13;3.45;;;;;;;35.65;29.35;99646.66;1660257;85;21607;-41
2021/08/06 11:01:36;;;;;;;7.95;2.70;;;;;;;35.66;28.49;99649.66;1696208;83;20979;-41
2021/08/06 11:04:13;;;;;;;4.72;3.02;;;;;;;35.76;28.10;99641.98;1678927;85;21781;-41
2021/08/06 11:06:48;;;;;;;11.65;3.30;;;;;;;35.98;27.42;99642.98;1649943;85;20962;-41
2021/08/06 11:09:29;;;;;;;14.18;3.50;;;;;;;36.10;27.21;99641.80;1681371;85;21048;-41
2021/08/06 11:12:12;;;;;;;9.20;3.17;;;;;;;36.01;28.02;99640.38;1681303;84;21033;-41
2021/08/06 11:14:47;;;;;;;6.80;3.30;;;;;;;35.92;27.19;99635.77;1679689;85;21005;-39
2021/08/06 11:17:22;;;;;;;12.68;3.17;;;;;;;36.05;27.57;99634.90;1678873;85;21261;-40
2021/08/06 11:19:56;;;;;;;10.15;2.95;;;;;;;36.13;27.99;99625.23;1678523;84;21017;-40
2021/08/06 11:22:27;;;;;;;12.03;2.85;;;;;;;36.23;27.59;99626.91;1678849;85;20974;-41
2021/08/06 11:25:05;;;;;;;10.28;3.12;;;;;;;36.30;27.57;99628.22;1722311;82;20972;-40
2021/08/06 11:27:52;;;;;;;9.53;3.08;;;;;;;36.34;27.90;99626.73;1721175;81;21015;-40
2021/08/06 11:30:36;;;;;;;11.43;3.42;;;;;;;36.39;27.42;99629.59;1701240;82;21019;-40
2021/08/06 11:33:07;;;;;;;16.23;3.77;;;;;;;36.28;27.43;99622.23;1725001;81;21485;-40
2021/08/06 11:35:40;;;;;;;7.33;3.92;;;;;;;36.04;27.73;99632.75;1730044;82;20992;-40